Time;durP1;ratioP1;P1;durP2;ratioP2;P2;SDS_P1;SDS_P2;PMS_P1;PMS_P2;Temp;Humidity;BMP_temperature;BMP_pressure;BME280_temperature;BME280_humidity;BME280_pressure;Samples;Min_cycle;Max_cycle;Signal;HPM_P1;HPM_P2
2023/09/17 00:01:25;;;;;;;5.97;5.47;;;23.40;99.90;;;;;;4955814;29;20645;-74
2023/09/17 00:03:54;;;;;;;5.40;4.90;;;23.40;99.90;;;;;;4955715;29;20172;-73
2023/09/17 00:06:20;;;;;;;6.50;5.90;;;23.40;99.90;;;;;;4938362;29;20674;-73
2023/09/17 00:08:46;;;;;;;9.20;7.23;;;23.50;99.90;;;;;;4949222;29;20608;-74
2023/09/17 00:11:12;;;;;;;7.90;6.60;;;23.50;99.90;;;;;;4936409;29;20613;-74
2023/09/17 00:13:39;;;;;;;7.30;6.70;;;23.50;99.90;;;;;;4935242;29;20559;-74
2023/09/17 00:16:04;;;;;;;7.07;6.33;;;23.50;99.90;;;;;;4935557;29;20597;-74
2023/09/17 00:18:30;;;;;;;7.60;6.20;;;23.50;99.90;;;;;;4936066;29;20621;-74
2023/09/17 00:20:56;;;;;;;6.37;5.77;;;23.50;99.90;;;;;;4936136;29;20224;-74
2023/09/17 00:23:22;;;;;;;6.80;6.20;;;23.50;99.90;;;;;;4934899;29;20173;-74
2023/09/17 00:25:47;;;;;;;7.07;6.37;;;23.50;99.90;;;;;;4936064;29;20626;-74
2023/09/17 00:28:13;;;;;;;7.37;6.67;;;23.50;99.90;;;;;;4934491;29;20205;-73
2023/09/17 00:30:39;;;;;;;6.73;6.03;;;23.50;99.90;;;;;;4918782;29;20211;-73
2023/09/17 00:33:05;;;;;;;5.43;4.93;;;23.50;99.90;;;;;;4918780;29;20577;-74
2023/09/17 00:35:30;;;;;;;5.60;5.10;;;23.50;99.90;;;;;;4918720;29;20268;-74
2023/09/17 00:37:56;;;;;;;6.17;5.67;;;23.40;99.90;;;;;;4934402;29;20188;-74
2023/09/17 00:40:28;;;;;;;8.20;5.23;;;23.50;99.90;;;;;;4934639;29;20299;-74
2023/09/17 00:42:54;;;;;;;7.57;5.57;;;23.40;99.90;;;;;;4934506;29;20592;-74
2023/09/17 00:45:20;;;;;;;5.87;5.37;;;23.40;99.90;;;;;;4953840;29;20970;-75
2023/09/17 00:47:46;;;;;;;6.00;5.40;;;23.40;99.90;;;;;;4954791;29;20636;-74
2023/09/17 00:50:12;;;;;;;5.47;4.97;;;23.30;99.90;;;;;;4920435;29;20713;-74
2023/09/17 00:52:38;;;;;;;5.47;4.70;;;23.30;99.90;;;;;;4918436;29;20593;-74
2023/09/17 00:55:05;;;;;;;6.10;5.50;;;23.30;99.90;;;;;;4902765;29;20185;-74
2023/09/17 00:57:32;;;;;;;5.20;4.70;;;23.30;99.90;;;;;;4934193;29;20688;-74
2023/09/17 00:59:59;;;;;;;5.87;5.30;;;23.20;99.90;;;;;;4933755;29;20652;-74
2023/09/17 01:02:26;;;;;;;7.40;5.03;;;23.20;99.90;;;;;;4935394;29;20580;-74
2023/09/17 01:04:53;;;;;;;4.67;4.27;;;23.10;99.90;;;;;;4933930;29;20183;-74
2023/09/17 01:07:20;;;;;;;5.63;5.13;;;23.10;99.90;;;;;;4934043;29;20676;-74
2023/09/17 01:09:47;;;;;;;7.63;4.53;;;23.10;99.90;;;;;;4933984;29;20621;-74
2023/09/17 01:12:13;;;;;;;5.17;4.67;;;23.00;99.90;;;;;;4933858;29;20938;-74
2023/09/17 01:14:39;;;;;;;6.10;5.53;;;23.00;99.90;;;;;;4918017;29;20676;-74
2023/09/17 01:17:07;;;;;;;5.80;5.27;;;23.00;99.90;;;;;;4949708;29;20588;-74
2023/09/17 01:19:34;;;;;;;6.90;6.30;;;22.90;99.90;;;;;;4917826;29;20736;-74
2023/09/17 01:22:20;;;;;;;6.67;5.00;;;22.90;99.90;;;;;;4917878;29;20578;-74
2023/09/17 01:24:54;;;;;;;6.47;5.30;;;22.80;99.90;;;;;;4933745;29;20593;-74
2023/09/17 01:27:21;;;;;;;5.63;5.13;;;22.80;99.90;;;;;;4933543;29;20592;-74
2023/09/17 01:29:47;;;;;;;7.10;5.80;;;22.70;99.90;;;;;;4913677;29;20626;-74
2023/09/17 01:32:14;;;;;;;7.13;6.43;;;22.70;99.90;;;;;;4914603;29;20600;-73
2023/09/17 01:34:43;;;;;;;6.93;6.13;;;22.70;99.90;;;;;;4898789;29;20590;-74
2023/09/17 01:37:16;;;;;;;8.20;6.03;;;22.60;99.90;;;;;;4914867;29;20652;-74
2023/09/17 01:39:53;;;;;;;7.13;6.43;;;22.60;99.90;;;;;;4917518;29;20640;-74
2023/09/17 01:42:20;;;;;;;6.77;6.17;;;22.60;99.90;;;;;;4917611;29;20662;-73
2023/09/17 01:44:48;;;;;;;7.00;6.30;;;22.60;99.90;;;;;;4917310;29;20601;-73
2023/09/17 01:47:15;;;;;;;7.00;6.30;;;22.60;99.90;;;;;;4917399;29;20589;-73
2023/09/17 01:49:42;;;;;;;6.77;6.17;;;22.50;99.90;;;;;;4947076;29;20620;-73
2023/09/17 01:52:10;;;;;;;7.07;6.37;;;22.50;99.90;;;;;;4919724;29;20588;-73
2023/09/17 01:54:36;;;;;;;7.20;6.60;;;22.50;99.90;;;;;;4944769;29;20595;-73
2023/09/17 01:57:02;;;;;;;6.83;6.17;;;22.50;99.90;;;;;;4936918;29;20585;-74
2023/09/17 01:59:27;;;;;;;6.57;6.07;;;22.50;99.90;;;;;;4948995;29;20652;-74
2023/09/17 02:01:53;;;;;;;8.63;6.33;;;22.50;99.90;;;;;;4902082;29;21004;-74
2023/09/17 02:04:19;;;;;;;8.53;6.50;;;22.50;99.90;;;;;;4950511;29;20211;-73
2023/09/17 02:06:45;;;;;;;7.07;6.47;;;22.50;99.90;;;;;;4940429;29;20185;-74
2023/09/17 02:09:12;;;;;;;6.27;5.77;;;22.50;99.90;;;;;;4917016;29;20200;-73
2023/09/17 02:11:39;;;;;;;9.63;6.53;;;22.50;99.90;;;;;;4913928;29;20589;-73
2023/09/17 02:14:06;;;;;;;6.70;6.03;;;22.50;99.90;;;;;;4913933;29;20646;-73
2023/09/17 02:16:32;;;;;;;8.30;7.57;;;22.40;99.90;;;;;;4898164;29;21165;-73
2023/09/17 02:19:02;;;;;;;8.20;7.50;;;22.40;99.90;;;;;;4935457;29;20636;-73
2023/09/17 02:21:27;;;;;;;7.30;6.67;;;22.40;99.90;;;;;;4942709;29;20995;-73
2023/09/17 02:23:54;;;;;;;7.43;6.50;;;22.40;99.90;;;;;;4924729;29;20620;-73
2023/09/17 02:26:21;;;;;;;8.57;6.43;;;22.40;99.90;;;;;;4933982;29;20180;-73
2023/09/17 02:28:47;;;;;;;8.33;7.53;;;22.30;99.90;;;;;;4896083;29;20614;-73
2023/09/17 02:31:13;;;;;;;8.97;6.87;;;22.30;99.90;;;;;;4882456;29;21183;-73
2023/09/17 02:33:40;;;;;;;7.77;7.07;;;22.30;99.90;;;;;;4882390;29;20594;-73
2023/09/17 02:36:06;;;;;;;8.03;7.07;;;22.30;99.90;;;;;;4882335;29;20605;-73
2023/09/17 02:38:32;;;;;;;7.83;6.90;;;22.30;99.90;;;;;;4913386;29;20624;-73
2023/09/17 02:40:58;;;;;;;6.67;6.07;;;22.30;99.90;;;;;;4913707;29;20629;-73
2023/09/17 02:43:24;;;;;;;8.03;7.23;;;22.20;99.90;;;;;;4913721;29;20651;-73
2023/09/17 02:45:53;;;;;;;6.03;5.40;;;22.20;99.90;;;;;;4926754;29;20184;-73
2023/09/17 02:48:20;;;;;;;7.60;6.83;;;22.20;99.90;;;;;;4941696;29;20611;-73
2023/09/17 02:50:45;;;;;;;6.90;6.20;;;22.20;99.90;;;;;;4952999;29;20632;-73
2023/09/17 02:53:11;;;;;;;7.20;6.53;;;22.20;99.90;;;;;;4935678;29;20584;-73
2023/09/17 02:55:37;;;;;;;6.20;5.70;;;22.20;99.90;;;;;;4952912;29;20214;-72
2023/09/17 02:58:03;;;;;;;7.47;6.77;;;22.10;99.90;;;;;;4951552;29;21914;-72
2023/09/17 03:00:35;;;;;;;6.57;5.87;;;22.20;99.90;;;;;;4951542;29;20240;-72
2023/09/17 03:03:02;;;;;;;6.60;5.90;;;22.20;99.90;;;;;;4951584;29;20581;-73
2023/09/17 03:05:27;;;;;;;7.77;6.03;;;22.20;99.90;;;;;;4952645;29;20569;-73
2023/09/17 03:07:54;;;;;;;5.93;5.37;;;22.20;99.90;;;;;;4938074;29;20625;-72
2023/09/17 03:10:22;;;;;;;6.13;5.63;;;22.20;99.90;;;;;;4933924;29;21203;-73
2023/09/17 03:12:48;;;;;;;6.60;6.00;;;22.20;99.90;;;;;;4935514;29;20687;-72
2023/09/17 03:15:15;;;;;;;6.63;6.03;;;22.20;99.90;;;;;;4935488;29;20628;-73
2023/09/17 03:17:41;;;;;;;6.53;5.90;;;22.20;99.90;;;;;;4939305;29;20688;-73
2023/09/17 03:20:17;;;;;;;6.20;5.60;;;22.20;99.90;;;;;;4940643;29;20738;-72
2023/09/17 03:22:46;;;;;;;5.57;5.07;;;22.20;99.90;;;;;;4932429;29;20954;-72
2023/09/17 03:25:12;;;;;;;5.90;5.40;;;22.20;99.90;;;;;;4928984;29;20688;-73
2023/09/17 03:27:44;;;;;;;7.80;6.97;;;22.20;99.90;;;;;;4885538;29;21220;-73
2023/09/17 03:30:10;;;;;;;6.80;6.20;;;22.20;99.90;;;;;;4947638;29;20696;-72
2023/09/17 03:32:38;;;;;;;8.07;6.07;;;22.20;99.90;;;;;;4913295;29;20220;-73
2023/09/17 03:35:06;;;;;;;7.93;6.93;;;22.20;99.90;;;;;;4942435;29;21166;-73
2023/09/17 03:37:32;;;;;;;7.30;6.70;;;22.20;99.90;;;;;;4932427;29;20597;-73
2023/09/17 03:40:08;;;;;;;8.00;6.40;;;22.20;99.90;;;;;;4931759;29;20743;-73
2023/09/17 03:42:37;;;;;;;7.33;6.63;;;22.20;99.90;;;;;;4916259;29;20252;-72
2023/09/17 03:45:09;;;;;;;7.20;6.50;;;22.20;99.90;;;;;;4924135;29;20629;-72
2023/09/17 03:47:37;;;;;;;7.30;6.10;;;22.10;99.90;;;;;;4928958;29;20936;-72
2023/09/17 03:50:04;;;;;;;6.70;6.20;;;22.10;99.90;;;;;;4946599;29;20619;-73
2023/09/17 03:52:32;;;;;;;7.20;6.60;;;22.10;99.90;;;;;;4911096;29;20593;-73
2023/09/17 03:54:58;;;;;;;7.07;6.47;;;22.10;99.90;;;;;;4930303;29;21150;-73
2023/09/17 03:57:24;;;;;;;8.33;7.53;;;22.10;99.90;;;;;;4935419;29;20627;-73
2023/09/17 03:59:50;;;;;;;7.87;7.17;;;22.00;99.90;;;;;;4935271;29;20201;-73
2023/09/17 04:02:17;;;;;;;7.23;6.23;;;22.00;99.90;;;;;;4935381;29;20185;-73
2023/09/17 04:04:42;;;;;;;6.80;6.30;;;22.00;99.90;;;;;;4950606;29;20942;-74
2023/09/17 04:07:08;;;;;;;7.83;6.90;;;22.00;99.90;;;;;;4942198;29;20615;-73
2023/09/17 04:09:35;;;;;;;7.53;6.87;;;22.00;99.90;;;;;;4946217;29;20211;-73
2023/09/17 04:12:05;;;;;;;7.50;6.80;;;22.00;99.90;;;;;;4948076;29;20547;-73
2023/09/17 04:14:31;;;;;;;8.50;7.60;;;21.90;99.90;;;;;;4951055;29;20597;-73
2023/09/17 04:17:05;;;;;;;10.07;8.27;;;22.00;99.90;;;;;;4936266;29;20584;-73
2023/09/17 04:19:31;;;;;;;7.87;7.07;;;21.90;99.90;;;;;;4918862;29;20656;-73
2023/09/17 04:21:57;;;;;;;7.27;6.67;;;21.90;99.90;;;;;;4934941;29;20641;-73
2023/09/17 04:24:24;;;;;;;7.57;6.67;;;21.90;99.90;;;;;;4919119;29;20679;-73
2023/09/17 04:26:52;;;;;;;6.73;6.13;;;21.80;99.90;;;;;;4938202;29;20620;-73
2023/09/17 04:29:19;;;;;;;7.77;7.07;;;21.80;99.90;;;;;;4937461;29;20699;-73
2023/09/17 04:31:46;;;;;;;7.07;6.47;;;21.80;99.90;;;;;;4922952;29;20595;-73
2023/09/17 04:34:17;;;;;;;8.20;7.50;;;21.70;99.90;;;;;;4945699;29;20597;-73
2023/09/17 04:36:43;;;;;;;7.00;6.40;;;21.70;99.90;;;;;;4915052;29;20618;-73
2023/09/17 04:39:10;;;;;;;7.33;6.63;;;21.70;99.90;;;;;;4916497;29;20675;-74
2023/09/17 04:41:36;;;;;;;7.27;6.57;;;21.70;99.90;;;;;;4925111;29;20720;-73
2023/09/17 04:44:07;;;;;;;7.67;6.87;;;21.70;99.90;;;;;;4934301;29;20585;-73
2023/09/17 04:46:34;;;;;;;7.87;7.17;;;21.60;99.90;;;;;;4918628;29;20592;-73
2023/09/17 04:49:00;;;;;;;7.47;6.77;;;21.60;99.90;;;;;;4886912;29;20680;-73
2023/09/17 04:51:28;;;;;;;7.93;6.93;;;21.60;99.90;;;;;;4920049;29;20596;-73
2023/09/17 04:53:53;;;;;;;6.60;6.10;;;21.60;99.90;;;;;;4953553;29;20572;-73
2023/09/17 04:56:19;;;;;;;7.63;6.93;;;21.50;99.90;;;;;;4953042;29;20204;-73
2023/09/17 04:58:45;;;;;;;7.30;6.60;;;21.50;99.90;;;;;;4934078;29;20193;-73
2023/09/17 05:01:12;;;;;;;7.80;6.97;;;21.50;99.90;;;;;;4934051;29;20684;-73
2023/09/17 05:03:41;;;;;;;7.60;6.97;;;21.50;99.90;;;;;;4952774;28;20184;-74
2023/09/17 05:06:07;;;;;;;7.27;6.67;;;21.50;99.90;;;;;;4947595;29;20626;-74
2023/09/17 05:08:36;;;;;;;8.17;7.47;;;21.50;99.90;;;;;;4949649;29;20640;-74
2023/09/17 05:11:03;;;;;;;7.73;7.03;;;21.40;99.90;;;;;;4934008;29;20688;-74
2023/09/17 05:13:29;;;;;;;7.17;6.47;;;21.40;99.90;;;;;;4934004;29;20585;-74
2023/09/17 05:15:55;;;;;;;6.80;6.10;;;21.40;99.90;;;;;;4947078;29;20591;-74
2023/09/17 05:18:21;;;;;;;7.43;6.80;;;21.40;99.90;;;;;;4936925;29;20204;-74
2023/09/17 05:20:48;;;;;;;7.60;6.90;;;21.40;99.90;;;;;;4953076;29;21046;-74
2023/09/17 05:23:14;;;;;;;7.73;6.93;;;21.40;99.90;;;;;;4954320;29;20611;-74
2023/09/17 05:25:40;;;;;;;6.67;6.07;;;21.40;99.90;;;;;;4936925;29;21120;-75
2023/09/17 05:28:07;;;;;;;6.80;6.20;;;21.40;99.90;;;;;;4952810;29;20616;-72
2023/09/17 05:30:34;;;;;;;6.83;6.23;;;21.40;99.90;;;;;;4936848;29;20597;-72
2023/09/17 05:33:00;;;;;;;7.67;6.97;;;21.40;99.90;;;;;;4952827;29;20592;-72
2023/09/17 05:35:29;;;;;;;7.40;6.70;;;21.30;99.90;;;;;;4936779;29;20596;-74
2023/09/17 05:37:54;;;;;;;6.20;5.60;;;21.30;99.90;;;;;;4952692;29;20948;-74
2023/09/17 05:40:20;;;;;;;6.43;5.90;;;21.40;99.90;;;;;;4952559;29;20208;-74
2023/09/17 05:42:46;;;;;;;6.63;6.03;;;21.40;99.90;;;;;;4948947;29;20228;-74
2023/09/17 05:45:17;;;;;;;6.80;6.10;;;21.40;99.90;;;;;;4933512;29;20955;-74
2023/09/17 05:47:44;;;;;;;6.80;6.27;;;21.40;99.90;;;;;;4933419;29;20589;-74
2023/09/17 05:50:10;;;;;;;8.00;7.30;;;21.50;99.90;;;;;;4917368;29;20612;-72
2023/09/17 05:52:36;;;;;;;7.20;6.60;;;21.50;99.90;;;;;;4919522;29;20584;-73
2023/09/17 05:55:05;;;;;;;7.17;6.53;;;21.50;99.90;;;;;;4952404;29;21094;-74
2023/09/17 05:57:33;;;;;;;7.23;6.57;;;21.40;99.90;;;;;;4952446;29;20646;-72
2023/09/17 06:00:03;;;;;;;7.40;6.70;;;21.50;99.90;;;;;;4951987;29;20643;-73
2023/09/17 06:02:40;;;;;;;8.40;6.40;;;21.50;99.90;;;;;;4952465;29;20925;-73
2023/09/17 06:05:06;;;;;;;6.63;6.03;;;21.50;99.90;;;;;;4936148;29;21168;-74
2023/09/17 06:07:32;;;;;;;8.53;7.13;;;21.60;99.90;;;;;;4951963;29;20578;-74
2023/09/17 06:09:58;;;;;;;7.50;6.80;;;21.60;99.90;;;;;;4952056;29;20207;-74
2023/09/17 06:12:24;;;;;;;8.07;7.27;;;21.60;99.90;;;;;;4953349;29;20584;-74
2023/09/17 06:14:50;;;;;;;6.50;6.00;;;21.60;99.90;;;;;;4951550;28;20297;-73
2023/09/17 06:17:16;;;;;;;7.63;6.80;;;21.70;99.90;;;;;;4951940;29;20180;-72
2023/09/17 06:19:42;;;;;;;7.03;6.43;;;21.70;99.90;;;;;;4951790;29;20756;-73
2023/09/17 06:22:11;;;;;;;6.63;6.00;;;21.70;99.90;;;;;;4936061;29;20184;-73
2023/09/17 06:24:37;;;;;;;6.97;6.30;;;21.80;99.90;;;;;;4935672;29;20600;-73
2023/09/17 06:27:03;;;;;;;7.03;6.43;;;21.80;99.90;;;;;;4951821;29;20588;-73
2023/09/17 06:29:29;;;;;;;7.67;6.97;;;21.90;99.90;;;;;;4935947;29;21258;-73
2023/09/17 06:31:55;;;;;;;6.60;6.00;;;21.90;99.90;;;;;;4951974;29;20588;-74
2023/09/17 06:34:21;;;;;;;7.10;5.90;;;22.00;99.90;;;;;;4951813;29;20239;-74
2023/09/17 06:36:47;;;;;;;7.57;5.70;;;22.10;99.90;;;;;;4948376;29;21181;-74
2023/09/17 06:39:13;;;;;;;7.10;6.50;;;22.10;99.90;;;;;;4911826;29;20648;-74
2023/09/17 06:41:39;;;;;;;7.10;6.40;;;22.20;99.90;;;;;;4940054;29;20181;-74
2023/09/17 06:44:05;;;;;;;6.60;6.00;;;22.20;99.90;;;;;;4923974;29;20585;-74
2023/09/17 06:47:03;;;;;;;;;;;;;;;;;;;;;
2023/09/17 06:49:42;;;;;;;6.00;5.40;;;22.40;99.90;;;;;;4861419;29;20655;-75
2023/09/17 06:52:08;;;;;;;6.37;5.77;;;22.50;99.90;;;;;;4926056;29;20625;-73
2023/09/17 06:54:36;;;;;;;6.80;6.13;;;22.60;99.90;;;;;;4933725;29;20605;-74
2023/09/17 06:57:02;;;;;;;6.30;5.70;;;22.70;99.90;;;;;;4940007;29;20953;-75
2023/09/17 06:59:28;;;;;;;5.17;4.67;;;22.70;99.90;;;;;;4930634;29;20220;-75
2023/09/17 07:01:54;;;;;;;7.23;5.50;;;22.80;99.90;;;;;;4938115;29;20593;-74
2023/09/17 07:04:19;;;;;;;7.67;5.70;;;22.90;99.90;;;;;;4934036;29;20185;-73
2023/09/17 07:06:45;;;;;;;4.97;4.53;;;23.00;99.90;;;;;;4936692;29;20300;-74
2023/09/17 07:09:12;;;;;;;6.60;5.70;;;23.30;99.90;;;;;;4946854;29;20200;-75
2023/09/17 07:11:37;;;;;;;4.67;4.23;;;23.80;99.90;;;;;;4933365;29;20185;-74
2023/09/17 07:14:09;;;;;;;5.60;5.10;;;24.50;99.90;;;;;;4900693;29;20595;-74
2023/09/17 07:16:36;;;;;;;4.90;4.50;;;25.30;99.90;;;;;;4946882;29;20177;-74
2023/09/17 07:19:02;;;;;;;3.77;3.37;;;26.20;99.90;;;;;;4930249;29;20677;-75
2023/09/17 07:21:27;;;;;;;3.70;3.40;;;27.20;99.90;;;;;;4916260;29;20633;-74
2023/09/17 07:23:53;;;;;;;4.10;3.40;;;28.20;99.90;;;;;;4929558;29;20628;-74
2023/09/17 07:26:20;;;;;;;4.43;3.03;;;29.10;99.90;;;;;;4938987;28;20174;-73
2023/09/17 07:28:46;;;;;;;2.90;2.53;;;29.90;99.90;;;;;;4935766;29;20198;-74
2023/09/17 07:31:13;;;;;;;3.27;2.37;;;30.70;99.90;;;;;;4938597;29;20679;-73
2023/09/17 07:33:39;;;;;;;4.67;2.83;;;31.50;99.90;;;;;;4919198;29;20597;-74
2023/09/17 07:36:06;;;;;;;3.67;2.63;;;32.30;99.90;;;;;;4918753;29;20584;-74
2023/09/17 07:38:32;;;;;;;3.80;2.37;;;32.90;99.90;;;;;;4942535;29;20683;-74
2023/09/17 07:40:57;;;;;;;2.70;2.50;;;33.50;99.90;;;;;;4948707;29;21068;-74
2023/09/17 07:43:23;;;;;;;2.40;1.93;;;34.10;99.90;;;;;;4940225;29;20181;-74
2023/09/17 07:45:49;;;;;;;2.83;2.10;;;34.70;99.90;;;;;;4938312;29;20265;-74
2023/09/17 07:48:14;;;;;;;4.00;1.93;;;35.20;99.90;;;;;;4935423;29;20272;-75
2023/09/17 07:50:40;;;;;;;2.10;1.80;;;35.70;99.90;;;;;;4909701;29;20192;-74
2023/09/17 07:53:07;;;;;;;3.13;1.80;;;36.20;99.90;;;;;;4942505;29;20212;-74
2023/09/17 07:55:33;;;;;;;3.03;1.60;;;36.70;99.90;;;;;;4946607;29;20671;-74
2023/09/17 07:57:59;;;;;;;3.37;2.10;;;37.10;99.90;;;;;;4915112;29;21158;-75
2023/09/17 08:00:25;;;;;;;6.63;1.60;;;37.40;99.90;;;;;;4907875;29;20588;-75
2023/09/17 08:02:51;;;;;;;3.20;1.43;;;37.70;99.90;;;;;;4939285;29;20600;-75
2023/09/17 08:05:17;;;;;;;2.90;1.63;;;38.00;99.90;;;;;;4948691;29;20591;-74
2023/09/17 08:07:44;;;;;;;2.63;1.30;;;38.30;99.90;;;;;;4945021;29;20674;-75
2023/09/17 08:10:10;;;;;;;3.07;1.73;;;38.60;99.90;;;;;;4941643;29;20648;-75
2023/09/17 08:12:36;;;;;;;2.20;1.70;;;38.70;99.90;;;;;;4928003;29;20597;-75
2023/09/17 08:15:02;;;;;;;2.23;1.40;;;39.00;99.90;;;;;;4938202;29;20959;-74
2023/09/17 08:17:27;;;;;;;2.77;1.70;;;39.40;99.70;;;;;;4932457;29;20650;-75
2023/09/17 08:19:54;;;;;;;3.97;1.97;;;39.60;97.90;;;;;;4925319;29;20216;-75
2023/09/17 08:22:21;;;;;;;2.47;1.80;;;39.40;93.70;;;;;;4938010;29;20690;-74
2023/09/17 08:24:47;;;;;;;2.40;1.63;;;38.80;91.40;;;;;;4953968;29;20584;-75
2023/09/17 08:27:15;;;;;;;2.90;1.60;;;38.60;92.30;;;;;;4938066;29;20580;-75
2023/09/17 08:29:41;;;;;;;3.00;1.57;;;38.40;91.20;;;;;;4928098;29;20201;-74
2023/09/17 08:32:07;;;;;;;1.70;1.43;;;38.30;91.40;;;;;;4934509;29;20946;-75
2023/09/17 08:34:33;;;;;;;3.50;1.37;;;38.40;91.90;;;;;;4935463;29;20189;-74
2023/09/17 08:36:58;;;;;;;2.07;1.50;;;38.50;91.30;;;;;;4954510;28;20177;-74
2023/09/17 08:39:25;;;;;;;1.87;1.47;;;38.50;90.50;;;;;;4928942;29;22143;-74
2023/09/17 08:41:52;;;;;;;1.80;1.20;;;38.60;90.20;;;;;;4937631;29;20203;-74
2023/09/17 08:44:18;;;;;;;4.67;2.00;;;38.50;86.70;;;;;;4929476;29;21422;-73
2023/09/17 08:46:45;;;;;;;2.50;1.23;;;38.60;87.70;;;;;;4945147;29;20585;-75
2023/09/17 08:49:11;;;;;;;1.83;1.27;;;38.70;87.60;;;;;;4941200;29;20625;-73
2023/09/17 08:51:41;;;;;;;2.43;1.03;;;39.00;87.10;;;;;;4933592;29;20601;-74
2023/09/17 08:54:09;;;;;;;2.37;1.20;;;38.90;85.40;;;;;;4936708;29;20189;-74
2023/09/17 08:56:40;;;;;;;1.60;1.10;;;38.90;82.80;;;;;;4914922;29;21028;-75
2023/09/17 08:59:22;;;;;;;2.27;1.67;;;39.00;83.00;;;;;;4916008;29;20676;-74
2023/09/17 09:01:49;;;;;;;3.20;1.93;;;39.10;81.70;;;;;;4923075;29;20632;-75
2023/09/17 09:04:15;;;;;;;1.50;0.93;;;39.20;79.80;;;;;;4939745;29;20600;-73
2023/09/17 09:06:43;;;;;;;1.97;1.20;;;39.20;80.80;;;;;;4951182;29;21171;-73
2023/09/17 09:09:09;;;;;;;2.10;1.10;;;39.00;77.50;;;;;;4929876;29;20656;-74
2023/09/17 09:11:35;;;;;;;1.80;1.10;;;38.70;77.20;;;;;;4930170;29;21039;-74
2023/09/17 09:14:04;;;;;;;2.40;1.57;;;38.60;77.80;;;;;;4934404;29;20716;-74
2023/09/17 09:16:33;;;;;;;1.60;1.00;;;38.50;75.50;;;;;;4917775;29;20968;-74
2023/09/17 09:18:59;;;;;;;2.77;1.30;;;38.40;76.10;;;;;;4918646;29;20616;-74
2023/09/17 09:21:28;;;;;;;2.47;1.20;;;38.50;76.90;;;;;;4934291;29;20625;-74
2023/09/17 09:23:57;;;;;;;2.30;1.30;;;38.70;77.50;;;;;;4937376;29;21152;-74
2023/09/17 09:26:33;;;;;;;2.40;1.53;;;39.10;77.40;;;;;;4937769;29;20581;-73
2023/09/17 09:28:58;;;;;;;3.07;1.30;;;39.10;74.10;;;;;;4917263;29;20608;-74
2023/09/17 09:31:26;;;;;;;2.27;1.70;;;38.90;72.80;;;;;;4939953;29;20579;-75
2023/09/17 09:33:53;;;;;;;2.37;1.30;;;39.00;73.70;;;;;;4917430;29;20185;-73
2023/09/17 09:36:20;;;;;;;2.77;1.30;;;39.00;73.80;;;;;;4934439;29;20643;-74
2023/09/17 09:38:47;;;;;;;2.47;1.30;;;39.20;72.50;;;;;;4934162;29;20628;-74
2023/09/17 09:41:13;;;;;;;2.90;1.30;;;39.10;69.80;;;;;;4931328;29;20987;-74
2023/09/17 09:43:42;;;;;;;3.00;1.30;;;39.00;70.10;;;;;;4932547;29;20683;-74
2023/09/17 09:46:08;;;;;;;2.80;1.23;;;38.90;68.30;;;;;;4917138;29;20577;-74
2023/09/17 09:48:38;;;;;;;2.43;1.23;;;38.60;67.40;;;;;;4932696;29;20616;-74
2023/09/17 09:51:04;;;;;;;2.60;1.30;;;38.70;69.30;;;;;;4928819;29;20605;-74
2023/09/17 09:53:31;;;;;;;1.80;1.20;;;38.90;68.20;;;;;;4913728;29;20598;-74
2023/09/17 09:55:57;;;;;;;2.10;1.50;;;39.00;69.20;;;;;;4916936;29;20581;-75
2023/09/17 09:58:24;;;;;;;2.47;1.20;;;39.40;69.60;;;;;;4934137;29;20201;-75
2023/09/17 10:00:50;;;;;;;2.77;1.40;;;39.70;67.50;;;;;;4933560;29;20643;-75
2023/09/17 10:03:22;;;;;;;1.70;1.27;;;39.70;66.00;;;;;;4933649;29;20585;-77
2023/09/17 10:05:48;;;;;;;2.20;1.50;;;39.50;64.80;;;;;;4923298;29;20602;-75
2023/09/17 10:08:17;;;;;;;2.57;1.57;;;39.80;67.40;;;;;;4934096;29;20620;-74
2023/09/17 10:10:43;;;;;;;1.90;1.30;;;40.20;65.80;;;;;;4933708;29;20589;-75
2023/09/17 10:13:10;;;;;;;2.90;1.63;;;40.20;64.60;;;;;;4919908;29;20593;-74
2023/09/17 10:15:37;;;;;;;2.03;1.10;;;40.40;64.00;;;;;;4937330;29;20675;-74
2023/09/17 10:18:05;;;;;;;2.97;1.10;;;40.10;62.20;;;;;;4897533;29;20646;-74
2023/09/17 10:20:32;;;;;;;2.57;1.40;;;40.10;61.20;;;;;;4913572;29;20698;-75
2023/09/17 10:22:58;;;;;;;2.50;1.50;;;39.90;61.70;;;;;;4934974;29;20581;-75
2023/09/17 10:25:26;;;;;;;1.90;1.43;;;39.70;60.60;;;;;;4942890;29;20592;-75
2023/09/17 10:27:53;;;;;;;1.97;0.87;;;39.50;61.00;;;;;;4940581;29;20584;-76
2023/09/17 10:30:20;;;;;;;1.70;0.90;;;39.50;62.50;;;;;;4928543;29;20955;-75
2023/09/17 10:32:48;;;;;;;1.83;1.40;;;39.60;62.50;;;;;;4925741;29;21176;-76
2023/09/17 10:35:16;;;;;;;2.30;1.50;;;39.70;61.20;;;;;;4925923;29;20657;-76
2023/09/17 10:37:47;;;;;;;2.30;1.37;;;39.30;60.30;;;;;;4914460;29;20601;-75
2023/09/17 10:40:13;;;;;;;3.03;1.40;;;39.10;61.50;;;;;;4932586;29;20640;-75
2023/09/17 10:42:39;;;;;;;2.77;1.10;;;39.20;62.10;;;;;;4940351;29;20588;-75
2023/09/17 10:45:10;;;;;;;2.33;0.90;;;39.40;62.20;;;;;;4937751;29;20597;-75
2023/09/17 10:47:38;;;;;;;1.60;1.10;;;39.40;60.00;;;;;;4921353;29;20647;-75
2023/09/17 10:50:05;;;;;;;2.57;1.20;;;39.30;59.60;;;;;;4929733;29;20627;-75
2023/09/17 10:52:31;;;;;;;2.80;1.17;;;39.00;59.30;;;;;;4936426;29;20596;-74
2023/09/17 10:54:58;;;;;;;2.27;1.17;;;38.90;59.90;;;;;;4924494;29;20600;-76
2023/09/17 10:57:40;;;;;;;2.03;1.10;;;38.80;59.90;;;;;;4932173;29;20596;-76
2023/09/17 11:00:11;;;;;;;2.93;1.27;;;38.70;59.40;;;;;;4932188;29;21227;-75
2023/09/17 11:02:45;;;;;;;2.53;1.20;;;38.50;59.20;;;;;;4928153;29;20930;-74
2023/09/17 11:05:17;;;;;;;1.70;1.00;;;38.20;58.80;;;;;;4933011;29;20597;-75
2023/09/17 11:07:43;;;;;;;2.20;1.20;;;37.90;58.50;;;;;;4940671;29;20734;-75
2023/09/17 11:10:14;;;;;;;1.80;1.00;;;37.70;58.80;;;;;;4919608;29;20704;-75
2023/09/17 11:12:41;;;;;;;2.20;1.20;;;37.40;59.30;;;;;;4918300;29;20586;-75
2023/09/17 11:15:08;;;;;;;2.13;1.43;;;37.30;59.90;;;;;;4937254;29;20683;-75
2023/09/17 11:17:34;;;;;;;1.50;0.93;;;37.40;60.80;;;;;;4935827;29;20624;-74
2023/09/17 11:20:07;;;;;;;1.97;1.30;;;37.40;60.80;;;;;;4935548;29;21339;-74
2023/09/17 11:22:36;;;;;;;1.70;1.30;;;37.40;59.90;;;;;;4937789;29;20600;-75
2023/09/17 11:25:03;;;;;;;1.60;1.10;;;37.30;59.80;;;;;;4924349;29;20582;-74
2023/09/17 11:27:51;;;;;;;3.93;1.17;;;37.30;61.10;;;;;;4932340;29;20584;-73
2023/09/17 11:30:18;;;;;;;1.70;1.40;;;37.30;60.30;;;;;;4935552;29;20592;-73
2023/09/17 11:32:54;;;;;;;2.13;1.20;;;37.30;60.50;;;;;;4943732;29;20591;-73
2023/09/17 11:35:24;;;;;;;1.70;1.10;;;37.20;60.10;;;;;;4916599;29;20654;-73
2023/09/17 11:37:51;;;;;;;2.03;1.17;;;37.20;59.80;;;;;;4900457;29;20601;-73
2023/09/17 11:40:20;;;;;;;1.80;1.10;;;37.00;59.90;;;;;;4922307;29;20636;-73
2023/09/17 11:42:46;;;;;;;2.20;1.10;;;36.90;60.10;;;;;;4935180;29;20640;-73
2023/09/17 11:45:13;;;;;;;1.80;1.20;;;37.00;60.60;;;;;;4936314;29;20675;-73
2023/09/17 11:47:39;;;;;;;2.37;1.13;;;37.00;61.00;;;;;;4927409;29;20216;-73
2023/09/17 11:50:07;;;;;;;1.90;1.20;;;37.20;61.20;;;;;;4922567;29;20616;-75
2023/09/17 11:52:33;;;;;;;2.17;1.20;;;37.20;59.80;;;;;;4923997;29;21211;-75
2023/09/17 11:55:11;;;;;;;1.80;0.90;;;37.20;59.50;;;;;;4913117;29;20589;-75
2023/09/17 11:57:38;;;;;;;1.40;0.80;;;37.10;59.70;;;;;;4923130;29;20596;-74
2023/09/17 12:00:09;;;;;;;1.40;0.90;;;37.10;59.10;;;;;;4926474;29;20644;-74
2023/09/17 12:02:37;;;;;;;1.50;0.90;;;37.00;58.80;;;;;;4927894;29;20588;-73
2023/09/17 12:05:04;;;;;;;1.63;0.90;;;36.90;58.40;;;;;;4928266;29;20636;-73
2023/09/17 12:07:30;;;;;;;1.60;1.00;;;37.00;59.10;;;;;;4911286;29;20648;-74
2023/09/17 12:10:05;;;;;;;1.90;1.17;;;37.00;59.20;;;;;;4933858;29;20633;-74
2023/09/17 12:12:35;;;;;;;2.60;1.33;;;37.00;59.00;;;;;;4930356;29;20690;-74
2023/09/17 12:15:06;;;;;;;2.00;1.00;;;37.10;58.70;;;;;;4935874;29;20605;-75
2023/09/17 12:17:34;;;;;;;2.90;1.60;;;37.10;58.50;;;;;;4929163;29;20605;-75
2023/09/17 12:20:12;;;;;;;2.77;1.63;;;37.10;58.80;;;;;;4917706;29;20765;-74
2023/09/17 12:22:39;;;;;;;2.37;1.93;;;37.10;58.70;;;;;;4935585;29;20652;-74
2023/09/17 12:25:13;;;;;;;3.03;1.50;;;37.10;58.60;;;;;;4932652;29;20590;-73
2023/09/17 12:27:46;;;;;;;2.70;1.10;;;37.00;58.20;;;;;;4899893;29;20668;-74
2023/09/17 12:30:14;;;;;;;2.60;1.00;;;36.80;57.40;;;;;;4928293;29;21044;-75
2023/09/17 12:32:40;;;;;;;2.10;1.00;;;36.70;57.60;;;;;;4918414;29;21167;-75
2023/09/17 12:35:07;;;;;;;3.70;1.97;;;36.40;57.40;;;;;;4940482;29;20590;-75
2023/09/17 12:37:33;;;;;;;2.23;1.47;;;36.10;57.20;;;;;;4931157;29;20585;-75
2023/09/17 12:39:59;;;;;;;1.90;0.90;;;35.70;57.30;;;;;;4935106;29;20644;-75
2023/09/17 12:42:25;;;;;;;2.67;1.10;;;35.30;57.30;;;;;;4936981;29;20634;-75
2023/09/17 12:44:52;;;;;;;2.60;1.00;;;34.90;57.30;;;;;;4920574;29;20213;-75
2023/09/17 12:47:19;;;;;;;2.93;1.00;;;34.60;58.00;;;;;;4918308;29;20248;-75
2023/09/17 12:49:45;;;;;;;1.90;1.00;;;34.40;58.70;;;;;;4918275;29;20696;-74